Main page
METAR-TAF:

METAR-TAF

Airports :

Guernsey Airport

Guernsey,

latitude: 49-26N, longitude: 002-36W, elevation: 102 m

Current weather observation

The report was made 44 minutes ago, at 20:50 UTC
Wind 3 kt from the Northeast, varying between North and East
Temperature 6°C
Humidity 81%
Pressure 1037 hPa
Visibility 10 km or more
Broken clouds at a height of 1500 ft

METAR: EGJB 222050Z 05003KT 010V080 9999 BKN015 06/03 Q1037

Time: 21:34 (21:34 UTC)

Forecast

The report was made 1 hour and 36 minutes ago, at 19:58 UTC
Forecast valid from 22 at 21 UTC to 23 at 06 UTC
Wind 5 kt from the East
Visibility 10 km or more
Broken clouds at a height of 1600 ft
Probability 30% :
Temporary
from 23 at 00 UTC to 23 at 06 UTC
Broken clouds at a height of 1000 ft

TAF: EGJB 221958Z 2221/2306 08005KT 9999 BKN016 PROB30 TEMPO 2300/2306 BKN010

Weather observations and forecasts of more than 4000 airports (METAR and TAF reports).

The available stations are represented by yellow and red dots on the map.

Hover mouse over dot to see the name of the station.

Then click to see weather observations and forecasts.

To change the map : click on the green buttons with a black cross to zoom in, on the green button with a dash to zoom out, or on the green arrows for adjacent maps.


METAR-TAF: